Time;durP1;ratioP1;P1;durP2;ratioP2;P2;SDS_P1;SDS_P2;PMS_P1;PMS_P2;Temp;Humidity;BMP_temperature;BMP_pressure;BME280_temperature;BME280_humidity;BME280_pressure;Samples;Min_cycle;Max_cycle;Signal;HPM_P1;HPM_P2
2022/03/10 00:01:29;;;;;;;11.43;6.30;;;1.80;71.90;;;;;;5048521;28;20037;-80
2022/03/10 00:03:56;;;;;;;11.68;6.22;;;1.80;71.90;;;;;;5035492;28;20384;-81
2022/03/10 00:06:21;;;;;;;10.10;5.97;;;1.90;72.00;;;;;;5040292;28;20018;-80
2022/03/10 00:08:47;;;;;;;11.75;6.47;;;2.20;70.80;;;;;;5055786;28;20035;-81
2022/03/10 00:11:12;;;;;;;12.20;6.03;;;2.40;70.60;;;;;;5053671;28;20025;-80
2022/03/10 00:13:38;;;;;;;11.57;6.20;;;2.30;70.10;;;;;;5044474;28;20033;-80
2022/03/10 00:16:04;;;;;;;9.93;5.32;;;2.40;70.10;;;;;;5043005;28;20055;-81
2022/03/10 00:18:29;;;;;;;10.23;5.40;;;2.50;69.70;;;;;;5047961;28;20029;-81
2022/03/10 00:20:55;;;;;;;10.50;5.75;;;2.50;69.10;;;;;;5036850;28;20044;-81
2022/03/10 00:23:20;;;;;;;11.55;5.22;;;2.60;69.20;;;;;;5054270;28;20033;-81
2022/03/10 00:25:46;;;;;;;9.77;4.93;;;2.60;69.00;;;;;;5053899;28;20025;-81
2022/03/10 00:28:11;;;;;;;11.48;5.53;;;2.60;69.00;;;;;;5045604;28;20025;-81
2022/03/10 00:30:37;;;;;;;11.55;5.60;;;2.50;69.50;;;;;;5058744;28;20579;-81
2022/03/10 00:33:02;;;;;;;9.73;5.75;;;2.50;69.60;;;;;;5054380;28;20033;-81
2022/03/10 00:35:28;;;;;;;10.63;5.60;;;2.50;69.50;;;;;;5049561;28;20484;-81
2022/03/10 00:37:55;;;;;;;9.38;5.18;;;2.50;69.80;;;;;;5046904;28;20057;-81
2022/03/10 00:40:21;;;;;;;9.55;5.38;;;2.60;69.80;;;;;;5040444;28;20454;-81
2022/03/10 00:42:47;;;;;;;9.18;5.50;;;2.70;69.40;;;;;;5053465;28;20025;-82
2022/03/10 00:45:14;;;;;;;9.88;5.75;;;2.60;69.60;;;;;;5041242;28;20041;-80
2022/03/10 00:47:40;;;;;;;10.38;5.60;;;2.60;69.60;;;;;;5057236;28;20033;-81
2022/03/10 00:50:07;;;;;;;11.15;6.25;;;2.60;69.80;;;;;;5049216;28;20029;-81
2022/03/10 00:52:33;;;;;;;13.52;6.85;;;2.50;70.00;;;;;;5049229;28;20576;-81
2022/03/10 00:54:58;;;;;;;12.20;6.38;;;2.50;70.00;;;;;;5054633;28;20033;-81
2022/03/10 00:57:24;;;;;;;10.82;6.13;;;2.50;70.20;;;;;;5046507;28;20029;-81
2022/03/10 00:59:50;;;;;;;12.13;6.63;;;2.50;70.00;;;;;;5054373;28;20032;-81
2022/03/10 01:02:16;;;;;;;11.15;6.20;;;2.40;70.30;;;;;;5044046;28;20552;-81
2022/03/10 01:04:43;;;;;;;12.75;6.38;;;2.50;70.40;;;;;;5066964;28;20033;-81
2022/03/10 01:07:09;;;;;;;10.55;6.38;;;2.40;70.50;;;;;;5069953;28;20083;-81
2022/03/10 01:09:34;;;;;;;10.55;5.78;;;2.40;70.60;;;;;;5049970;28;20477;-82
2022/03/10 01:12:00;;;;;;;11.75;5.82;;;2.20;70.80;;;;;;5056384;28;20025;-81
2022/03/10 01:14:25;;;;;;;10.95;6.32;;;2.30;71.10;;;;;;5051771;28;20037;-81
2022/03/10 01:16:51;;;;;;;10.13;5.60;;;2.40;71.10;;;;;;5073666;28;20068;-81
2022/03/10 01:19:16;;;;;;;12.70;6.43;;;2.30;71.10;;;;;;5042843;28;20025;-81
2022/03/10 01:21:42;;;;;;;9.90;5.85;;;2.20;71.40;;;;;;5044255;28;20045;-81
2022/03/10 01:24:08;;;;;;;12.48;6.13;;;2.30;71.60;;;;;;5051215;28;20488;-80
2022/03/10 01:26:33;;;;;;;10.45;6.00;;;2.30;71.80;;;;;;5052599;28;20068;-80
2022/03/10 01:28:59;;;;;;;11.80;5.35;;;2.30;71.80;;;;;;5053693;28;20503;-80
2022/03/10 01:31:24;;;;;;;12.90;5.63;;;2.40;71.10;;;;;;5049628;28;20044;-80
2022/03/10 01:33:50;;;;;;;11.63;5.70;;;2.40;71.30;;;;;;5054579;28;20025;-80
2022/03/10 01:36:16;;;;;;;12.75;6.25;;;2.40;71.30;;;;;;5041929;28;20052;-80
2022/03/10 01:38:42;;;;;;;10.75;5.72;;;2.30;71.40;;;;;;5045902;28;20052;-80
2022/03/10 01:41:08;;;;;;;12.68;6.00;;;2.40;71.50;;;;;;5053127;28;20028;-80
2022/03/10 01:43:58;;;;;;;11.68;6.07;;;2.30;71.60;;;;;;5049095;28;20120;-81
2022/03/10 01:46:24;;;;;;;11.20;6.22;;;2.20;71.80;;;;;;5037140;28;20045;-80
2022/03/10 01:48:49;;;;;;;11.25;6.25;;;2.30;71.90;;;;;;5047728;28;20037;-80
2022/03/10 01:51:15;;;;;;;12.93;6.70;;;2.30;71.80;;;;;;5046690;28;20971;-80
2022/03/10 01:53:42;;;;;;;13.32;6.47;;;2.20;72.00;;;;;;5056832;28;20052;-80
2022/03/10 01:56:09;;;;;;;11.65;6.65;;;2.30;72.10;;;;;;5037916;28;20055;-80
2022/03/10 01:58:34;;;;;;;9.20;5.72;;;2.30;72.20;;;;;;5048421;28;20594;-82
2022/03/10 02:01:00;;;;;;;12.50;6.38;;;2.30;72.10;;;;;;5045225;28;20025;-81
2022/03/10 02:03:25;;;;;;;10.20;6.43;;;2.40;72.10;;;;;;5044508;28;20033;-80
2022/03/10 02:05:52;;;;;;;11.23;6.18;;;2.30;71.90;;;;;;5044843;28;20025;-80
2022/03/10 02:11:02;;;;;;;12.38;6.18;;;2.40;72.00;;;;;;5039340;28;20037;-81
2022/03/10 02:13:27;;;;;;;11.55;6.25;;;2.30;72.20;;;;;;5043336;28;20017;-81
2022/03/10 02:18:37;;;;;;;10.18;6.00;;;2.20;72.50;;;;;;5053353;28;20078;-80
2022/03/10 02:21:02;;;;;;;11.93;6.07;;;2.20;72.60;;;;;;5053527;28;20032;-81
2022/03/10 02:23:28;;;;;;;12.50;6.40;;;2.10;72.70;;;;;;5043407;28;20041;-81
2022/03/10 02:25:58;;;;;;;13.65;6.40;;;2.20;72.90;;;;;;5042205;28;20032;-81
2022/03/10 02:28:25;;;;;;;14.68;6.45;;;2.20;72.60;;;;;;5047027;28;20097;-81
2022/03/10 02:30:51;;;;;;;11.55;6.68;;;2.10;72.90;;;;;;5050475;28;20624;-81
2022/03/10 02:33:16;;;;;;;10.35;6.32;;;2.00;72.70;;;;;;5037856;28;20116;-81
2022/03/10 02:35:42;;;;;;;11.13;6.20;;;2.00;73.00;;;;;;5044413;28;20071;-81
2022/03/10 02:38:08;;;;;;;12.75;6.15;;;2.10;73.10;;;;;;5040420;28;20097;-81
2022/03/10 02:40:33;;;;;;;10.98;6.57;;;1.90;73.10;;;;;;5052279;28;20044;-81
2022/03/10 02:42:59;;;;;;;14.23;7.25;;;1.80;73.40;;;;;;5063339;28;20033;-81
2022/03/10 02:45:27;;;;;;;12.13;6.63;;;1.80;73.60;;;;;;5049667;28;20033;-81
2022/03/10 02:47:52;;;;;;;14.48;6.55;;;1.80;73.80;;;;;;5050452;28;20021;-82
2022/03/10 02:50:18;;;;;;;11.63;7.03;;;1.80;73.80;;;;;;5052821;28;20135;-81
2022/03/10 02:52:44;;;;;;;12.88;6.57;;;1.80;73.80;;;;;;5040049;28;20100;-81
2022/03/10 02:55:10;;;;;;;14.73;6.78;;;1.90;73.80;;;;;;5055014;28;20064;-81
2022/03/10 02:57:37;;;;;;;13.07;7.78;;;1.90;74.10;;;;;;5041160;28;20038;-81
2022/03/10 03:00:05;;;;;;;13.40;7.15;;;1.80;73.90;;;;;;5038430;28;20048;-81
2022/03/10 03:02:30;;;;;;;11.40;6.45;;;1.70;74.00;;;;;;5040798;28;20123;-81
2022/03/10 03:04:56;;;;;;;14.48;7.45;;;1.70;74.10;;;;;;5052797;28;20085;-81
2022/03/10 03:07:23;;;;;;;13.10;6.85;;;1.60;74.30;;;;;;5037979;28;20026;-82
2022/03/10 03:09:48;;;;;;;11.88;7.10;;;1.60;74.50;;;;;;5052613;28;20026;-81
2022/03/10 03:12:14;;;;;;;12.57;6.90;;;1.60;74.60;;;;;;5042462;28;20025;-81
2022/03/10 03:14:40;;;;;;;14.10;7.22;;;1.60;74.70;;;;;;5036587;28;20021;-81
2022/03/10 03:17:05;;;;;;;13.70;6.90;;;1.60;74.80;;;;;;5038336;28;20037;-81
2022/03/10 03:19:31;;;;;;;13.80;7.35;;;1.60;74.80;;;;;;5040740;28;20025;-81
2022/03/10 03:21:57;;;;;;;14.40;7.60;;;1.60;74.80;;;;;;5044302;28;20531;-82
2022/03/10 03:24:22;;;;;;;12.60;7.40;;;1.60;74.90;;;;;;5036162;28;20437;-81
2022/03/10 03:26:48;;;;;;;11.57;7.03;;;1.60;74.70;;;;;;5034873;28;20025;-81
2022/03/10 03:29:14;;;;;;;14.23;7.28;;;1.50;74.60;;;;;;5048703;28;20423;-81
2022/03/10 03:31:39;;;;;;;12.00;7.50;;;1.50;74.50;;;;;;5042178;28;20017;-80
2022/03/10 03:34:10;;;;;;;12.85;7.18;;;1.50;74.70;;;;;;5039925;28;20033;-80
2022/03/10 03:36:39;;;;;;;11.50;6.68;;;1.50;74.80;;;;;;5037606;28;20036;-81
2022/03/10 03:39:06;;;;;;;11.13;6.65;;;1.50;74.60;;;;;;5050160;28;20072;-82
2022/03/10 03:41:31;;;;;;;12.27;7.05;;;1.40;74.70;;;;;;5043554;28;20025;-81
2022/03/10 03:43:57;;;;;;;13.40;7.32;;;1.50;74.80;;;;;;5044792;28;20021;-81
2022/03/10 03:46:23;;;;;;;12.15;7.10;;;1.50;74.70;;;;;;5049924;28;20064;-81
2022/03/10 03:48:48;;;;;;;14.40;7.28;;;1.50;74.60;;;;;;5040749;28;20029;-81
2022/03/10 03:51:14;;;;;;;12.85;7.20;;;1.50;74.80;;;;;;5040246;28;20358;-80
2022/03/10 03:53:39;;;;;;;12.85;7.70;;;1.60;74.50;;;;;;5036639;28;20025;-80
2022/03/10 03:56:05;;;;;;;12.23;6.97;;;1.60;74.50;;;;;;5046219;28;20435;-81
2022/03/10 03:58:30;;;;;;;12.45;6.78;;;1.60;74.20;;;;;;5035199;28;20047;-81
2022/03/10 04:00:56;;;;;;;14.00;8.00;;;1.60;74.40;;;;;;5046350;28;20032;-81
2022/03/10 04:03:21;;;;;;;13.48;7.70;;;1.60;74.30;;;;;;5038352;28;20029;-81
2022/03/10 04:05:47;;;;;;;15.50;8.10;;;1.50;74.40;;;;;;5034536;28;20021;-81
2022/03/10 04:08:13;;;;;;;11.70;6.72;;;1.50;74.40;;;;;;5034142;28;20032;-81
2022/03/10 04:10:39;;;;;;;18.02;7.72;;;1.60;74.50;;;;;;5042843;28;20017;-81
2022/03/10 04:13:05;;;;;;;13.45;6.45;;;1.70;74.10;;;;;;5051263;28;20370;-81
2022/03/10 04:15:32;;;;;;;14.43;7.88;;;1.60;73.90;;;;;;5041471;28;20044;-81
2022/03/10 04:17:58;;;;;;;10.13;6.78;;;1.60;74.10;;;;;;5037331;28;20037;-81
2022/03/10 04:20:24;;;;;;;12.30;7.28;;;1.60;74.10;;;;;;5045357;28;20029;-82
2022/03/10 04:22:49;;;;;;;12.63;7.05;;;1.70;73.70;;;;;;5042474;28;20159;-81
2022/03/10 04:25:15;;;;;;;12.48;7.28;;;1.80;73.50;;;;;;5040008;28;20025;-81
2022/03/10 04:27:40;;;;;;;13.32;7.15;;;1.80;73.20;;;;;;5035098;28;20129;-81
2022/03/10 04:30:07;;;;;;;13.75;7.13;;;1.70;73.00;;;;;;5036410;28;20103;-81
2022/03/10 04:32:46;;;;;;;15.32;7.97;;;1.70;73.30;;;;;;5045270;28;20126;-81
2022/03/10 04:35:14;;;;;;;13.57;7.15;;;1.70;73.40;;;;;;5051549;28;20053;-81
2022/03/10 04:37:40;;;;;;;14.05;7.05;;;1.70;73.10;;;;;;5045323;28;20029;-81
2022/03/10 04:40:07;;;;;;;12.30;6.50;;;1.60;73.00;;;;;;5046489;28;20033;-81
2022/03/10 04:42:34;;;;;;;12.90;7.28;;;1.60;73.30;;;;;;5049965;28;20075;-81
2022/03/10 04:45:00;;;;;;;12.48;7.53;;;1.60;73.20;;;;;;5035835;28;20096;-81
2022/03/10 04:47:25;;;;;;;13.00;7.53;;;1.50;73.30;;;;;;5040190;28;20048;-80
2022/03/10 04:49:51;;;;;;;12.57;7.70;;;1.60;73.40;;;;;;5052731;28;20071;-82
2022/03/10 04:52:16;;;;;;;13.40;6.90;;;1.60;73.60;;;;;;5043700;28;20434;-81
2022/03/10 04:54:42;;;;;;;11.40;7.18;;;1.40;73.50;;;;;;5051329;28;20036;-81
2022/03/10 04:57:07;;;;;;;11.27;6.85;;;1.50;73.90;;;;;;5037828;28;20089;-81
2022/03/10 04:59:33;;;;;;;12.07;6.80;;;1.50;73.90;;;;;;5043726;28;20481;-81
2022/03/10 05:01:58;;;;;;;12.90;7.65;;;1.60;73.20;;;;;;5043726;28;20021;-81
2022/03/10 05:04:24;;;;;;;13.48;7.05;;;1.50;73.40;;;;;;5051409;28;20065;-81
2022/03/10 05:06:50;;;;;;;13.57;7.10;;;1.40;73.40;;;;;;5036602;28;20014;-81
2022/03/10 05:09:15;;;;;;;14.80;7.30;;;1.40;73.80;;;;;;5054544;28;20115;-80
2022/03/10 05:11:41;;;;;;;15.07;7.57;;;1.40;73.70;;;;;;5048602;28;20021;-80
2022/03/10 05:14:07;;;;;;;13.35;7.07;;;1.30;73.90;;;;;;5043530;28;20550;-81
2022/03/10 05:16:33;;;;;;;14.07;8.00;;;1.40;74.20;;;;;;5056184;28;20060;-81
2022/03/10 05:18:58;;;;;;;13.68;7.40;;;1.20;74.10;;;;;;5057040;28;20032;-81
2022/03/10 05:21:24;;;;;;;11.27;7.55;;;1.20;74.60;;;;;;5051130;28;20037;-81
2022/03/10 05:23:52;;;;;;;12.93;7.22;;;1.30;74.60;;;;;;5040771;28;20049;-81
2022/03/10 05:26:21;;;;;;;12.77;7.60;;;1.20;74.70;;;;;;5044173;28;20025;-81
2022/03/10 05:28:46;;;;;;;13.57;7.32;;;1.20;74.80;;;;;;5052085;28;20049;-80
2022/03/10 05:31:12;;;;;;;14.00;7.63;;;1.10;75.10;;;;;;5047938;28;20052;-81
2022/03/10 05:33:37;;;;;;;13.57;7.65;;;1.00;75.30;;;;;;5041200;28;20091;-80
2022/03/10 05:36:03;;;;;;;15.25;7.93;;;1.00;75.60;;;;;;5050563;28;20408;-80
2022/03/10 05:38:29;;;;;;;16.25;7.60;;;1.10;75.50;;;;;;5052094;28;20045;-80
2022/03/10 05:40:54;;;;;;;13.23;7.57;;;1.00;75.60;;;;;;5042729;28;20112;-81
2022/03/10 05:43:19;;;;;;;14.60;8.15;;;1.10;75.60;;;;;;5041620;28;20033;-80
2022/03/10 05:45:45;;;;;;;14.70;8.05;;;1.00;75.40;;;;;;5045910;28;20026;-80
2022/03/10 05:48:11;;;;;;;17.13;8.40;;;1.00;75.50;;;;;;5037845;28;20389;-80
2022/03/10 05:50:36;;;;;;;13.73;7.72;;;0.90;75.50;;;;;;5049529;28;20029;-80
2022/03/10 05:53:03;;;;;;;13.55;7.85;;;1.00;75.80;;;;;;5052901;28;20017;-82
2022/03/10 05:55:29;;;;;;;15.15;8.18;;;0.90;75.90;;;;;;5048463;28;20045;-80
2022/03/10 05:57:55;;;;;;;13.80;7.93;;;0.90;76.00;;;;;;5045087;28;20033;-81
2022/03/10 06:00:21;;;;;;;13.88;7.57;;;0.80;75.90;;;;;;5048747;28;20044;-81
2022/03/10 06:02:47;;;;;;;13.27;6.82;;;0.90;76.20;;;;;;5041240;28;20049;-80
2022/03/10 06:05:12;;;;;;;11.48;7.50;;;0.90;75.90;;;;;;5041281;28;20036;-82
2022/03/10 06:07:38;;;;;;;13.35;7.40;;;0.90;76.50;;;;;;5052563;28;20036;-80
2022/03/10 06:10:05;;;;;;;13.30;8.27;;;1.00;75.60;;;;;;5045804;28;20028;-81
2022/03/10 06:12:30;;;;;;;12.82;6.75;;;1.10;75.60;;;;;;5055839;28;20111;-80
2022/03/10 06:14:58;;;;;;;13.00;8.05;;;1.10;75.60;;;;;;5042304;28;20060;-80
2022/03/10 06:17:24;;;;;;;14.38;7.75;;;1.10;75.50;;;;;;5043853;28;20025;-80
2022/03/10 06:19:50;;;;;;;14.73;7.22;;;1.20;75.40;;;;;;5050015;28;20045;-80
2022/03/10 06:22:21;;;;;;;13.35;7.68;;;1.20;75.20;;;;;;5036929;28;20029;-80
2022/03/10 06:24:47;;;;;;;13.02;7.90;;;1.20;75.20;;;;;;5037062;28;20025;-80
2022/03/10 06:27:14;;;;;;;12.63;7.20;;;1.30;75.00;;;;;;5043474;28;20037;-80
2022/03/10 06:29:40;;;;;;;11.73;7.68;;;1.30;75.00;;;;;;5048048;28;20044;-80
2022/03/10 06:32:06;;;;;;;14.32;8.05;;;1.30;75.00;;;;;;5053957;28;20503;-80
2022/03/10 06:34:32;;;;;;;11.43;7.60;;;1.50;74.70;;;;;;5045476;28;20128;-80
2022/03/10 06:36:57;;;;;;;15.70;7.60;;;1.60;74.40;;;;;;5049452;28;20094;-80
2022/03/10 06:39:23;;;;;;;13.68;7.90;;;1.60;74.10;;;;;;5046507;28;20038;-80
2022/03/10 06:41:49;;;;;;;11.98;7.03;;;1.80;73.80;;;;;;5056401;28;20373;-81
2022/03/10 06:44:14;;;;;;;10.32;7.13;;;1.80;73.50;;;;;;5038163;28;20515;-80
2022/03/10 06:46:40;;;;;;;13.38;7.68;;;2.00;72.80;;;;;;5047668;28;20014;-81
2022/03/10 06:49:05;;;;;;;12.45;7.28;;;1.90;72.90;;;;;;5043542;28;20039;-81
2022/03/10 06:51:31;;;;;;;12.75;7.35;;;2.10;72.80;;;;;;5045394;28;20116;-80
2022/03/10 06:53:57;;;;;;;12.88;7.75;;;2.10;72.70;;;;;;5046078;28;20025;-80
2022/03/10 06:56:23;;;;;;;14.05;7.65;;;2.20;72.50;;;;;;5039730;28;20439;-80
2022/03/10 06:58:49;;;;;;;12.88;6.80;;;2.30;72.20;;;;;;5040701;28;20021;-81
2022/03/10 07:01:14;;;;;;;10.85;6.60;;;2.50;71.70;;;;;;5049945;28;20033;-81
2022/03/10 07:03:40;;;;;;;11.32;6.05;;;2.60;71.50;;;;;;5042365;28;20033;-80
2022/03/10 07:06:05;;;;;;;12.40;6.45;;;2.70;71.10;;;;;;5033234;28;20040;-80
2022/03/10 07:08:31;;;;;;;13.13;6.57;;;2.90;70.70;;;;;;5034657;28;20045;-81
2022/03/10 07:10:56;;;;;;;11.13;6.82;;;3.10;70.40;;;;;;5043042;28;20079;-81
2022/03/10 07:13:22;;;;;;;13.05;6.60;;;3.30;70.00;;;;;;5054904;28;20492;-81
2022/03/10 07:15:47;;;;;;;14.55;7.03;;;3.50;69.30;;;;;;5055400;28;20021;-81
2022/03/10 07:18:13;;;;;;;10.95;6.05;;;3.60;68.40;;;;;;5054393;28;20033;-81
2022/03/10 07:20:38;;;;;;;11.93;6.32;;;3.70;68.40;;;;;;5046902;28;20025;-81
2022/03/10 07:23:04;;;;;;;11.68;6.30;;;3.80;67.40;;;;;;5047827;28;20033;-81
2022/03/10 07:25:29;;;;;;;10.82;6.40;;;3.90;66.60;;;;;;5053368;28;20120;-81
2022/03/10 07:27:55;;;;;;;13.77;7.07;;;3.90;66.70;;;;;;5054468;28;20029;-80
2022/03/10 07:30:21;;;;;;;11.18;6.10;;;3.90;66.70;;;;;;5053925;28;20464;-81
2022/03/10 07:32:46;;;;;;;10.43;5.57;;;4.10;66.20;;;;;;5045579;28;20025;-81
2022/03/10 07:35:12;;;;;;;13.60;6.65;;;4.20;66.00;;;;;;5046627;28;20072;-81
2022/03/10 07:37:37;;;;;;;8.43;5.75;;;4.30;65.80;;;;;;5051195;28;20301;-80
2022/03/10 07:40:04;;;;;;;11.73;6.57;;;4.40;65.40;;;;;;5051886;28;20028;-80
2022/03/10 07:42:30;;;;;;;13.13;5.75;;;4.60;65.30;;;;;;5063205;28;20373;-80
2022/03/10 07:44:55;;;;;;;13.77;5.85;;;4.70;64.90;;;;;;5041814;28;20032;-81
2022/03/10 07:47:21;;;;;;;12.07;6.13;;;4.80;64.20;;;;;;5054928;28;20059;-81
2022/03/10 07:49:46;;;;;;;12.38;6.20;;;5.00;64.20;;;;;;5051284;28;20031;-81
2022/03/10 07:52:12;;;;;;;10.70;5.57;;;5.00;63.90;;;;;;5043262;28;20029;-81
2022/03/10 07:54:38;;;;;;;9.52;5.65;;;5.20;63.60;;;;;;5040005;28;20477;-81
2022/03/10 07:57:04;;;;;;;10.25;6.03;;;5.20;63.40;;;;;;5034766;28;20104;-81
2022/03/10 07:59:29;;;;;;;9.73;5.65;;;5.30;63.10;;;;;;5045871;28;20556;-81
2022/03/10 08:01:55;;;;;;;11.25;5.88;;;5.50;62.90;;;;;;5037956;28;20064;-81
2022/03/10 08:04:21;;;;;;;11.13;6.20;;;5.70;62.70;;;;;;5033663;28;20040;-81
2022/03/10 08:06:46;;;;;;;11.57;6.05;;;5.80;62.20;;;;;;5032775;28;20025;-82
2022/03/10 08:09:12;;;;;;;10.55;6.18;;;5.90;61.90;;;;;;5053442;28;20504;-81
2022/03/10 08:11:39;;;;;;;11.43;6.22;;;6.10;61.40;;;;;;5048131;28;20104;-81
2022/03/10 08:14:05;;;;;;;14.25;5.45;;;6.10;61.50;;;;;;5036017;28;20042;-82
2022/03/10 08:16:32;;;;;;;9.18;5.63;;;6.30;60.50;;;;;;5049218;28;20053;-81
2022/03/10 08:18:59;;;;;;;9.10;5.57;;;6.30;60.70;;;;;;5051736;28;20028;-81
2022/03/10 08:21:25;;;;;;;12.05;6.25;;;6.50;60.40;;;;;;5033600;28;20481;-81
2022/03/10 08:23:50;;;;;;;11.73;5.80;;;6.80;59.90;;;;;;5035596;28;20083;-81
2022/03/10 08:26:17;;;;;;;9.90;5.50;;;7.00;60.20;;;;;;5037615;28;20472;-82
2022/03/10 08:28:42;;;;;;;10.70;6.05;;;7.30;58.80;;;;;;5043976;28;20032;-82
2022/03/10 08:31:08;;;;;;;11.35;5.70;;;7.40;57.80;;;;;;5038571;28;20391;-82
2022/03/10 08:33:34;;;;;;;9.93;5.80;;;7.60;57.70;;;;;;5039184;28;20021;-82
2022/03/10 08:35:59;;;;;;;9.07;5.57;;;7.90;57.30;;;;;;5045687;28;20102;-82
2022/03/10 08:38:25;;;;;;;9.98;5.53;;;8.10;56.80;;;;;;5048862;28;20408;-82
2022/03/10 08:40:51;;;;;;;8.77;5.60;;;8.30;55.60;;;;;;5055993;28;20430;-82
2022/03/10 08:43:17;;;;;;;10.95;5.93;;;8.40;54.80;;;;;;5058447;28;20021;-82
2022/03/10 08:45:43;;;;;;;8.57;5.22;;;8.70;55.00;;;;;;5054438;28;20066;-82
2022/03/10 08:48:09;;;;;;;14.35;5.47;;;8.80;53.90;;;;;;5047935;28;20032;-82
2022/03/10 08:50:34;;;;;;;10.57;5.55;;;8.90;53.40;;;;;;5056423;28;20029;-82
2022/03/10 08:53:00;;;;;;;10.98;5.18;;;8.90;53.10;;;;;;5057658;28;20029;-81
2022/03/10 08:55:26;;;;;;;11.65;5.68;;;9.10;52.20;;;;;;5057210;28;20522;-82
2022/03/10 08:57:51;;;;;;;9.43;5.72;;;9.30;52.20;;;;;;5048034;28;20025;-81
2022/03/10 09:00:20;;;;;;;9.70;5.82;;;9.40;51.70;;;;;;5039657;28;20025;-81
2022/03/10 09:02:46;;;;;;;10.40;5.57;;;9.60;50.80;;;;;;5055984;28;20029;-81
2022/03/10 09:05:11;;;;;;;11.07;5.60;;;9.60;51.60;;;;;;5037046;28;20482;-81
2022/03/10 09:07:37;;;;;;;8.00;4.82;;;9.80;49.90;;;;;;5041904;28;20071;-81
2022/03/10 09:10:04;;;;;;;11.85;5.82;;;9.80;48.80;;;;;;5051983;28;20028;-81
2022/03/10 09:12:30;;;;;;;9.65;5.97;;;9.70;49.50;;;;;;5056901;28;20100;-81
2022/03/10 09:14:56;;;;;;;9.68;5.20;;;10.00;49.80;;;;;;5057086;28;20072;-81
2022/03/10 09:17:21;;;;;;;11.63;5.68;;;10.00;48.90;;;;;;5036290;28;20152;-81
2022/03/10 09:19:49;;;;;;;15.90;5.53;;;10.10;48.30;;;;;;5053223;28;20029;-81
2022/03/10 09:22:17;;;;;;;9.60;5.50;;;10.10;48.20;;;;;;5051118;28;20060;-81
2022/03/10 09:24:43;;;;;;;9.45;5.15;;;10.10;49.30;;;;;;5037810;28;20032;-82
2022/03/10 09:27:09;;;;;;;10.95;5.68;;;10.30;48.10;;;;;;5042701;28;20029;-82
2022/03/10 09:29:35;;;;;;;7.95;4.70;;;10.60;47.70;;;;;;5053913;28;20027;-81
2022/03/10 09:32:01;;;;;;;9.40;5.15;;;10.80;47.30;;;;;;5049444;28;20108;-81
2022/03/10 09:34:26;;;;;;;9.23;5.00;;;10.80;46.80;;;;;;5056831;28;20087;-82
2022/03/10 09:36:52;;;;;;;9.30;5.13;;;10.70;46.70;;;;;;5048158;28;20567;-82
2022/03/10 09:39:18;;;;;;;8.82;4.82;;;11.10;46.80;;;;;;5051419;28;20025;-81
2022/03/10 09:41:45;;;;;;;10.45;5.50;;;11.00;45.40;;;;;;5055341;28;20024;-81
2022/03/10 09:44:16;;;;;;;11.02;5.55;;;10.50;46.90;;;;;;5038099;28;20029;-82
2022/03/10 09:46:43;;;;;;;10.40;5.65;;;11.10;47.00;;;;;;5038462;28;20143;-82
2022/03/10 09:49:09;;;;;;;10.88;5.55;;;11.30;45.90;;;;;;5035453;28;20065;-82
2022/03/10 09:51:34;;;;;;;8.65;5.25;;;11.40;44.70;;;;;;5051637;28;20087;-82
2022/03/10 09:54:00;;;;;;;10.15;5.35;;;11.30;45.40;;;;;;5050248;28;20400;-82
2022/03/10 09:56:26;;;;;;;11.40;5.78;;;11.70;45.30;;;;;;5046042;28;20037;-82
2022/03/10 09:58:51;;;;;;;14.20;5.90;;;11.80;44.10;;;;;;5052170;28;20041;-82
2022/03/10 10:01:17;;;;;;;10.20;5.70;;;12.00;43.40;;;;;;5049525;28;20067;-82
2022/03/10 10:03:42;;;;;;;8.75;5.18;;;11.60;43.20;;;;;;5043649;28;20361;-82
2022/03/10 10:06:08;;;;;;;12.85;6.45;;;11.30;43.60;;;;;;5043510;28;20036;-81
2022/03/10 10:08:34;;;;;;;12.02;6.00;;;11.70;43.80;;;;;;5041754;28;20499;-82
2022/03/10 10:11:01;;;;;;;11.63;6.28;;;12.10;43.00;;;;;;5051528;28;20028;-82
2022/03/10 10:13:32;;;;;;;12.18;5.68;;;12.00;42.20;;;;;;5047286;28;20049;-82
2022/03/10 10:16:00;;;;;;;12.82;6.47;;;12.10;42.60;;;;;;5040757;28;20022;-82
2022/03/10 10:18:27;;;;;;;10.40;5.35;;;12.20;42.60;;;;;;5052456;28;20036;-82
2022/03/10 10:20:55;;;;;;;10.82;5.82;;;12.50;41.50;;;;;;5053712;28;20033;-82
2022/03/10 10:23:23;;;;;;;11.35;6.00;;;12.60;40.30;;;;;;5032147;28;20025;-82
2022/03/10 10:25:56;;;;;;;11.07;5.82;;;12.80;41.40;;;;;;5049520;28;20029;-82
2022/03/10 10:28:27;;;;;;;13.10;6.55;;;12.40;42.40;;;;;;5047098;28;20093;-83
2022/03/10 10:30:55;;;;;;;12.90;6.93;;;12.30;41.50;;;;;;5056019;28;20529;-82
2022/03/10 10:33:21;;;;;;;8.50;5.40;;;12.50;42.50;;;;;;5051990;28;20017;-82
2022/03/10 10:35:47;;;;;;;11.02;6.22;;;13.00;42.30;;;;;;5051103;28;20568;-83
2022/03/10 10:38:30;;;;;;;11.60;5.95;;;13.00;40.70;;;;;;5048604;28;20053;-84
2022/03/10 10:41:34;;;;;;;13.13;6.30;;;13.00;40.60;;;;;;5047145;28;20032;-83
2022/03/10 10:44:07;;;;;;;11.30;6.07;;;12.70;40.30;;;;;;5012785;28;20034;-83
2022/03/10 10:46:43;;;;;;;11.32;6.45;;;13.10;41.00;;;;;;5033003;28;20101;-83
2022/03/10 10:49:11;;;;;;;17.67;6.70;;;12.90;40.30;;;;;;5040381;28;20106;-83
2022/03/10 10:51:50;;;;;;;11.82;6.20;;;12.80;41.40;;;;;;5053073;28;20029;-83
2022/03/10 10:54:23;;;;;;;10.82;6.22;;;13.00;41.70;;;;;;5053578;28;20033;-83
2022/03/10 10:56:56;;;;;;;13.10;6.18;;;13.20;41.20;;;;;;5043753;28;20102;-83
2022/03/10 10:59:27;;;;;;;10.40;6.07;;;13.60;40.40;;;;;;5046743;28;20575;-83
2022/03/10 11:02:10;;;;;;;11.23;6.28;;;13.30;39.40;;;;;;5060935;28;20025;-83
2022/03/10 11:04:40;;;;;;;10.88;6.15;;;13.50;39.60;;;;;;5047495;28;20061;-83
2022/03/10 11:07:07;;;;;;;10.60;6.20;;;13.30;40.00;;;;;;5036076;28;20034;-83
2022/03/10 11:09:33;;;;;;;11.15;6.15;;;13.20;39.60;;;;;;5039203;28;20021;-83
2022/03/10 11:11:59;;;;;;;11.15;5.68;;;13.50;39.50;;;;;;5048861;28;20024;-83
2022/03/10 11:14:25;;;;;;;11.48;5.75;;;13.40;38.20;;;;;;5043376;28;20041;-83
2022/03/10 11:16:52;;;;;;;11.15;6.05;;;13.60;36.50;;;;;;5035011;28;20026;-83
2022/03/10 11:19:25;;;;;;;10.98;6.00;;;13.50;37.10;;;;;;5044454;28;20017;-83
2022/03/10 11:22:12;;;;;;;9.77;5.88;;;13.50;37.60;;;;;;5046906;28;20060;-84
2022/03/10 11:24:47;;;;;;;9.95;5.32;;;13.60;36.60;;;;;;5041326;28;20044;-84
2022/03/10 11:27:16;;;;;;;10.80;5.30;;;13.70;36.70;;;;;;5045112;28;20036;-84
2022/03/10 11:29:44;;;;;;;8.80;4.88;;;13.70;36.80;;;;;;5044738;28;20449;-84
2022/03/10 11:32:10;;;;;;;9.55;5.78;;;14.10;36.70;;;;;;5057036;28;20024;-85
2022/03/10 11:34:47;;;;;;;9.32;5.10;;;14.00;35.90;;;;;;5054627;28;20037;-83
2022/03/10 11:37:36;;;;;;;11.23;5.70;;;14.00;36.00;;;;;;5037973;28;20818;-83
2022/03/10 11:40:02;;;;;;;11.82;6.18;;;14.40;36.70;;;;;;5063440;28;20025;-83
2022/03/10 11:42:30;;;;;;;9.57;5.63;;;14.00;38.30;;;;;;5058307;28;20441;-84
2022/03/10 11:45:18;;;;;;;11.77;6.90;;;14.40;37.90;;;;;;5040694;28;20049;-83
2022/03/10 11:47:45;;;;;;;9.15;5.82;;;14.50;38.40;;;;;;5043621;28;20455;-83
2022/03/10 11:50:22;;;;;;;10.18;6.22;;;14.50;37.80;;;;;;5058730;28;20078;-84
2022/03/10 11:52:58;;;;;;;10.90;6.10;;;14.70;38.00;;;;;;5041261;28;20028;-84
2022/03/10 11:55:51;;;;;;;10.75;5.10;;;14.70;35.90;;;;;;5037725;28;20035;-84
2022/03/10 11:58:32;;;;;;;11.07;5.50;;;14.60;35.30;;;;;;5040439;28;20037;-84
2022/03/10 12:00:58;;;;;;;10.25;6.00;;;14.80;37.30;;;;;;5047036;28;20021;-84
2022/03/10 12:03:34;;;;;;;9.90;6.20;;;15.00;37.40;;;;;;5041632;28;20534;-84
2022/03/10 12:06:08;;;;;;;10.60;5.90;;;15.00;37.40;;;;;;5035613;28;20037;-84
2022/03/10 12:08:35;;;;;;;11.32;6.07;;;15.20;36.40;;;;;;5039354;28;20440;-84
2022/03/10 12:11:07;;;;;;;9.60;6.15;;;15.40;35.40;;;;;;5039993;28;20051;-84
2022/03/10 12:13:35;;;;;;;11.75;6.18;;;15.20;35.90;;;;;;5052887;28;20044;-83
2022/03/10 12:16:28;;;;;;;9.48;5.35;;;15.00;36.60;;;;;;5053242;28;20020;-84
2022/03/10 12:18:55;;;;;;;9.63;5.40;;;15.30;35.40;;;;;;5041141;28;20484;-84
2022/03/10 12:21:23;;;;;;;10.88;5.88;;;14.90;35.30;;;;;;5054506;28;20057;-84
2022/03/10 12:23:53;;;;;;;9.90;5.63;;;15.30;34.80;;;;;;5047961;28;20060;-84
2022/03/10 12:26:29;;;;;;;11.10;5.63;;;15.60;34.80;;;;;;5042294;28;20052;-84
2022/03/10 12:28:57;;;;;;;8.98;5.35;;;15.20;35.30;;;;;;5043235;28;20026;-84
2022/03/10 12:31:25;;;;;;;7.90;4.80;;;16.00;33.30;;;;;;5045483;28;20033;-84
2022/03/10 12:33:52;;;;;;;8.52;4.68;;;16.00;31.80;;;;;;5038682;28;20027;-83
2022/03/10 12:36:28;;;;;;;8.20;4.93;;;15.90;31.00;;;;;;5053247;28;20072;-84
2022/03/10 12:38:56;;;;;;;8.55;4.93;;;15.50;32.90;;;;;;5046997;28;20377;-84
2022/03/10 12:41:33;;;;;;;8.68;5.10;;;15.10;33.30;;;;;;5042093;28;20270;-84
2022/03/10 12:43:58;;;;;;;8.48;4.80;;;15.90;33.30;;;;;;5047893;28;20444;-84
2022/03/10 12:46:25;;;;;;;10.30;5.20;;;16.40;31.60;;;;;;5045434;28;20028;-84
2022/03/10 12:48:59;;;;;;;9.10;4.75;;;16.70;32.30;;;;;;5043888;28;20030;-84
2022/03/10 12:51:33;;;;;;;8.60;5.07;;;16.20;32.90;;;;;;5045818;28;20032;-84